createdAt,value
2022-08-30T00:01:06.513Z,5.71
2022-08-30T00:03:36.994Z,5.69
2022-08-30T00:06:06.040Z,5.60
2022-08-30T00:08:33.929Z,5.67
2022-08-30T00:11:02.189Z,5.87
2022-08-30T00:13:29.359Z,5.57
2022-08-30T00:15:58.354Z,5.53
2022-08-30T00:18:25.580Z,5.75
2022-08-30T00:20:53.279Z,5.84
2022-08-30T00:23:20.820Z,5.78
2022-08-30T00:25:48.384Z,5.53
2022-08-30T00:28:15.994Z,5.30
2022-08-30T00:30:44.516Z,5.68
2022-08-30T00:33:14.703Z,5.36
2022-08-30T00:35:43.197Z,5.60
2022-08-30T00:38:12.667Z,5.66
2022-08-30T00:40:43.369Z,5.35
2022-08-30T00:43:19.588Z,5.52
2022-08-30T00:45:47.467Z,5.59
2022-08-30T00:48:16.485Z,5.66
2022-08-30T00:50:48.879Z,5.60
2022-08-30T00:53:23.027Z,5.40
2022-08-30T00:55:51.115Z,5.49
2022-08-30T00:58:27.739Z,5.60
2022-08-30T01:01:00.404Z,5.61
2022-08-30T01:03:32.908Z,5.74
2022-08-30T01:06:02.824Z,5.49
2022-08-30T01:08:30.054Z,5.68
2022-08-30T01:10:58.502Z,5.83
2022-08-30T01:13:27.880Z,6.01
2022-08-30T01:15:56.521Z,5.43
2022-08-30T01:18:25.403Z,5.65
2022-08-30T01:21:04.937Z,5.33
2022-08-30T01:23:36.582Z,5.84
2022-08-30T01:26:06.438Z,5.73
2022-08-30T01:28:35.385Z,5.72
2022-08-30T01:31:03.160Z,5.68
2022-08-30T01:33:30.872Z,5.61
2022-08-30T01:36:01.437Z,5.40
2022-08-30T01:38:35.078Z,5.44
2022-08-30T01:41:11.769Z,5.46
2022-08-30T01:43:38.959Z,5.58
2022-08-30T01:46:06.347Z,6.02
2022-08-30T01:48:33.563Z,5.85
2022-08-30T01:51:02.796Z,5.41
2022-08-30T01:53:30.007Z,5.53
2022-08-30T01:55:58.925Z,5.80
2022-08-30T01:58:26.177Z,5.89
2022-08-30T02:00:53.442Z,5.55
2022-08-30T02:03:20.625Z,5.86
2022-08-30T02:05:47.945Z,6.56
2022-08-30T02:08:15.521Z,6.29
2022-08-30T02:10:42.743Z,6.74
2022-08-30T02:13:11.295Z,6.08
2022-08-30T02:15:41.688Z,6.26
2022-08-30T02:18:09.250Z,6.25
2022-08-30T02:20:38.640Z,6.60
2022-08-30T02:23:05.706Z,6.29
2022-08-30T02:25:33.005Z,6.14
2022-08-30T02:28:00.344Z,6.04
2022-08-30T02:30:29.953Z,6.21
2022-08-30T02:32:57.262Z,5.94
2022-08-30T02:35:24.347Z,6.53
2022-08-30T02:37:51.604Z,6.03
2022-08-30T02:40:18.921Z,6.38
2022-08-30T02:42:46.165Z,6.36
2022-08-30T02:45:13.459Z,5.77
2022-08-30T02:47:46.723Z,5.88
2022-08-30T02:50:14.226Z,5.94
2022-08-30T02:52:42.236Z,6.23
2022-08-30T02:55:12.368Z,6.15
2022-08-30T02:57:42.547Z,6.09
2022-08-30T03:00:12.983Z,6.04
2022-08-30T03:02:41.986Z,6.13
2022-08-30T03:05:11.242Z,5.61
2022-08-30T03:07:38.381Z,6.12
2022-08-30T03:10:06.324Z,5.75
2022-08-30T03:12:34.533Z,5.95
2022-08-30T03:15:06.046Z,5.71
2022-08-30T03:17:33.251Z,6.03
2022-08-30T03:20:02.005Z,5.78
2022-08-30T03:22:29.706Z,5.75
2022-08-30T03:24:57.047Z,5.68
2022-08-30T03:27:24.240Z,5.79
2022-08-30T03:29:51.460Z,6.01
2022-08-30T03:32:19.166Z,5.53
2022-08-30T03:34:46.406Z,6.00
2022-08-30T03:37:15.048Z,5.97
2022-08-30T03:39:42.585Z,5.80
2022-08-30T03:42:09.734Z,5.78
2022-08-30T03:44:36.964Z,5.71
2022-08-30T03:47:06.264Z,5.74
2022-08-30T03:49:33.832Z,5.79
2022-08-30T03:52:00.988Z,5.82
2022-08-30T03:54:29.928Z,5.78
2022-08-30T03:56:57.284Z,5.93
2022-08-30T03:59:24.444Z,5.68
2022-08-30T04:01:51.677Z,5.74
2022-08-30T04:04:21.094Z,5.79
2022-08-30T04:06:49.569Z,5.79
2022-08-30T04:09:18.120Z,5.55
2022-08-30T04:11:47.440Z,6.05
2022-08-30T04:14:14.727Z,6.03
2022-08-30T04:16:42.066Z,6.35
2022-08-30T04:19:09.564Z,6.07
2022-08-30T04:21:42.949Z,5.95
2022-08-30T04:24:10.690Z,6.19
2022-08-30T04:26:38.151Z,6.62
2022-08-30T04:29:06.810Z,5.94
2022-08-30T04:31:34.280Z,6.18
2022-08-30T04:34:01.564Z,5.81
2022-08-30T04:36:28.806Z,5.88
2022-08-30T04:38:56.025Z,6.29
2022-08-30T04:41:23.230Z,5.92
2022-08-30T04:43:51.059Z,6.19
2022-08-30T04:46:20.389Z,6.07
2022-08-30T04:48:47.867Z,6.33
2022-08-30T04:51:17.688Z,6.00
2022-08-30T04:53:45.717Z,5.99
2022-08-30T04:56:15.105Z,5.87
2022-08-30T04:58:42.269Z,5.90
2022-08-30T05:01:13.853Z,5.73
2022-08-30T05:03:42.896Z,5.71
2022-08-30T05:06:12.013Z,5.98
2022-08-30T05:08:39.200Z,5.71
2022-08-30T05:11:13.944Z,5.80
2022-08-30T05:13:41.105Z,5.93
2022-08-30T05:16:08.926Z,5.77
2022-08-30T05:18:37.433Z,5.75
2022-08-30T05:21:10.171Z,5.77
2022-08-30T05:23:38.585Z,5.66
2022-08-30T05:26:07.058Z,6.04
2022-08-30T05:28:34.882Z,5.86
2022-08-30T05:31:03.400Z,6.03
2022-08-30T05:33:30.546Z,5.76
2022-08-30T05:36:01.864Z,5.88
2022-08-30T05:38:30.405Z,5.89
2022-08-30T05:40:57.507Z,5.64
2022-08-30T05:43:28.880Z,5.75
2022-08-30T05:46:00.980Z,5.85
2022-08-30T05:48:28.591Z,5.81
2022-08-30T05:51:03.765Z,5.54
2022-08-30T05:53:32.357Z,5.63
2022-08-30T05:56:01.714Z,5.91
2022-08-30T05:58:29.181Z,6.18
2022-08-30T06:00:56.504Z,5.91
2022-08-30T06:03:23.758Z,5.75
2022-08-30T06:05:55.009Z,5.73
2022-08-30T06:08:22.735Z,5.80
2022-08-30T06:10:51.423Z,5.52
2022-08-30T06:13:18.711Z,5.43
2022-08-30T06:15:45.982Z,6.13
2022-08-30T06:18:13.603Z,5.66
2022-08-30T06:20:42.041Z,5.82
2022-08-30T06:23:09.704Z,5.56
2022-08-30T06:25:41.321Z,5.44
2022-08-30T06:28:12.208Z,5.87
2022-08-30T06:30:42.188Z,6.22
2022-08-30T06:33:10.090Z,5.74
2022-08-30T06:35:46.820Z,5.94
2022-08-30T06:38:24.581Z,5.70
2022-08-30T06:40:51.854Z,5.54
2022-08-30T06:43:20.371Z,5.80
2022-08-30T06:45:47.487Z,5.85
2022-08-30T06:48:14.641Z,6.19
2022-08-30T06:50:42.234Z,6.21
2022-08-30T06:53:09.807Z,5.99
2022-08-30T06:55:37.633Z,5.84
2022-08-30T06:58:05.203Z,6.20
2022-08-30T07:00:33.830Z,5.82
2022-08-30T07:03:01.103Z,5.64
2022-08-30T07:05:28.464Z,5.97
2022-08-30T07:07:55.655Z,6.05
2022-08-30T07:10:22.765Z,5.52
2022-08-30T07:12:49.858Z,5.76
2022-08-30T07:15:17.177Z,5.80
2022-08-30T07:17:45.596Z,5.55
2022-08-30T07:20:12.804Z,5.57
2022-08-30T07:22:39.864Z,5.25
2022-08-30T07:25:07.238Z,4.90
2022-08-30T07:27:34.364Z,5.00
2022-08-30T07:30:01.645Z,4.66
2022-08-30T07:32:29.084Z,4.93
2022-08-30T07:34:57.644Z,5.22
2022-08-30T07:37:24.797Z,4.97
2022-08-30T07:39:52.605Z,5.06
2022-08-30T07:42:19.847Z,5.29
2022-08-30T07:44:47.585Z,4.88
2022-08-30T07:47:14.606Z,4.92
2022-08-30T07:49:41.708Z,5.17
2022-08-30T07:52:10.296Z,5.31
2022-08-30T07:54:37.347Z,5.00
2022-08-30T07:57:04.799Z,5.06
2022-08-30T07:59:34.212Z,5.17
2022-08-30T08:02:03.688Z,5.03
2022-08-30T08:04:30.865Z,4.86
2022-08-30T08:06:58.027Z,5.04
2022-08-30T08:09:26.605Z,5.60
2022-08-30T08:11:53.765Z,5.20
2022-08-30T08:14:20.987Z,4.89
2022-08-30T08:16:48.280Z,5.05
2022-08-30T08:19:15.557Z,5.11
2022-08-30T08:21:42.756Z,4.88
2022-08-30T08:24:09.894Z,4.91
2022-08-30T08:26:40.938Z,5.06
2022-08-30T08:29:13.089Z,5.13
2022-08-30T08:31:40.449Z,5.28
2022-08-30T08:34:08.504Z,4.81
2022-08-30T08:36:36.596Z,5.17
2022-08-30T08:39:06.048Z,5.00
2022-08-30T08:41:50.251Z,5.47
2022-08-30T08:44:34.448Z,5.05
2022-08-30T08:47:13.794Z,5.13
2022-08-30T08:49:45.443Z,5.27
2022-08-30T08:52:24.435Z,5.40
2022-08-30T08:54:56.138Z,4.80
2022-08-30T08:57:34.885Z,5.04
2022-08-30T09:00:03.767Z,4.58
2022-08-30T09:02:41.654Z,5.32
2022-08-30T09:05:12.205Z,5.40
2022-08-30T09:07:43.950Z,5.32
2022-08-30T09:10:11.228Z,5.63
2022-08-30T09:12:40.950Z,5.48
2022-08-30T09:15:19.429Z,5.42
2022-08-30T09:17:53.934Z,5.75
2022-08-30T09:20:31.726Z,5.69
2022-08-30T09:23:10.910Z,5.41
2022-08-30T09:25:41.889Z,5.67
2022-08-30T09:28:13.733Z,5.65
2022-08-30T09:30:57.763Z,5.54
2022-08-30T09:33:25.000Z,5.51
2022-08-30T09:35:54.267Z,5.83
2022-08-30T09:38:26.681Z,5.29
2022-08-30T09:40:56.398Z,5.31
2022-08-30T09:43:28.818Z,5.25
2022-08-30T09:46:10.935Z,5.42
2022-08-30T09:48:46.104Z,5.32
2022-08-30T09:51:41.501Z,5.10
2022-08-30T09:54:19.882Z,5.71
2022-08-30T09:57:04.312Z,5.52
2022-08-30T09:59:55.792Z,5.61
2022-08-30T10:02:51.330Z,5.58
2022-08-30T10:05:27.789Z,5.76
2022-08-30T10:08:08.545Z,5.67
2022-08-30T10:10:51.364Z,5.90
2022-08-30T10:13:42.908Z,6.03
2022-08-30T10:16:27.787Z,6.18
2022-08-30T10:19:06.498Z,6.63
2022-08-30T10:21:42.102Z,6.32
2022-08-30T10:24:20.810Z,6.69
2022-08-30T10:26:55.542Z,6.39
2022-08-30T10:29:29.661Z,6.98
2022-08-30T10:32:05.624Z,6.96
2022-08-30T10:34:39.625Z,6.88
2022-08-30T10:37:11.631Z,6.74
2022-08-30T10:39:46.734Z,6.76
2022-08-30T10:42:25.966Z,7.25
2022-08-30T10:45:04.113Z,7.34
2022-08-30T10:47:43.565Z,7.58
2022-08-30T10:50:16.545Z,7.22
2022-08-30T10:53:07.364Z,7.20
2022-08-30T10:55:39.720Z,7.20
2022-08-30T10:58:07.664Z,7.00
2022-08-30T11:00:47.262Z,7.28
2022-08-30T11:04:00.891Z,6.95
2022-08-30T11:06:40.748Z,6.98
2022-08-30T11:09:34.268Z,7.03
2022-08-30T11:12:31.179Z,6.87
2022-08-30T11:15:11.643Z,6.63
2022-08-30T11:17:53.139Z,6.75
2022-08-30T11:20:34.633Z,6.74
2022-08-30T11:23:26.920Z,6.76
2022-08-30T11:25:59.618Z,7.06
2022-08-30T11:29:03.621Z,7.02
2022-08-30T11:31:37.002Z,6.74
2022-08-30T11:34:05.838Z,7.04
2022-08-30T11:37:09.508Z,6.83
2022-08-30T11:39:55.106Z,7.62
2022-08-30T11:42:30.339Z,7.60
2022-08-30T11:45:34.587Z,6.76
2022-08-30T11:48:04.446Z,7.03
2022-08-30T11:50:43.390Z,7.36
2022-08-30T11:53:29.484Z,7.51
2022-08-30T11:56:06.103Z,7.81
2022-08-30T11:58:46.982Z,7.20
2022-08-30T12:01:42.290Z,7.78
2022-08-30T12:04:15.107Z,7.65
2022-08-30T12:06:54.982Z,7.31
2022-08-30T12:10:01.325Z,7.41
2022-08-30T12:12:55.046Z,7.27
2022-08-30T12:15:54.816Z,7.80
2022-08-30T12:18:32.082Z,7.15
2022-08-30T12:21:09.864Z,7.82
2022-08-30T12:23:51.723Z,7.80
2022-08-30T12:26:30.239Z,8.20
2022-08-30T12:29:13.169Z,7.84
2022-08-30T12:31:45.006Z,7.64
2022-08-30T12:34:23.231Z,7.97
2022-08-30T12:36:56.551Z,7.68
2022-08-30T12:39:25.769Z,7.82
2022-08-30T12:41:52.889Z,7.88
2022-08-30T12:44:25.385Z,7.70
2022-08-30T12:46:59.631Z,7.85
2022-08-30T12:49:32.188Z,8.21
2022-08-30T12:52:18.790Z,7.99
2022-08-30T12:54:46.762Z,7.81
2022-08-30T12:57:32.416Z,7.60
2022-08-30T13:00:06.089Z,7.97
2022-08-30T13:02:46.015Z,7.71
2022-08-30T13:05:45.527Z,7.44
2022-08-30T13:08:19.943Z,7.13
2022-08-30T13:10:58.698Z,7.60
2022-08-30T13:13:34.181Z,7.45
2022-08-30T13:16:22.982Z,7.30
2022-08-30T13:18:53.679Z,7.21
2022-08-30T13:21:28.667Z,7.16
2022-08-30T13:23:59.736Z,7.32
2022-08-30T13:26:32.109Z,7.78
2022-08-30T13:29:02.495Z,7.64
2022-08-30T13:31:32.093Z,7.36
2022-08-30T13:34:00.259Z,7.68
2022-08-30T13:36:31.358Z,7.48
2022-08-30T13:38:59.618Z,7.67
2022-08-30T13:41:30.136Z,7.50
2022-08-30T13:44:12.001Z,7.39
2022-08-30T13:46:48.565Z,7.14
2022-08-30T13:52:22.966Z,7.25
2022-08-30T13:54:52.333Z,7.45
2022-08-30T14:00:14.548Z,7.31
2022-08-30T14:02:47.809Z,7.09
2022-08-30T14:05:47.064Z,7.21
2022-08-30T14:08:44.435Z,6.98
2022-08-30T14:10:57.001Z,6.77
2022-08-30T14:13:25.404Z,6.67
2022-08-30T14:18:45.179Z,6.67
2022-08-30T14:21:12.529Z,6.94
2022-08-30T14:23:39.667Z,5.50
2022-08-30T14:26:17.368Z,6.71
2022-08-30T14:28:44.825Z,6.78
2022-08-30T14:31:12.246Z,6.02
2022-08-30T14:33:41.264Z,6.17
2022-08-30T14:36:15.662Z,6.49
2022-08-30T14:38:44.923Z,6.50
2022-08-30T14:41:12.086Z,6.38
2022-08-30T14:43:39.542Z,6.19
2022-08-30T14:46:06.951Z,6.45
2022-08-30T14:48:35.302Z,5.97
2022-08-30T14:51:03.786Z,6.83
2022-08-30T14:53:32.763Z,6.53
2022-08-30T14:55:59.965Z,6.74
2022-08-30T14:58:27.604Z,6.57
2022-08-30T15:00:54.759Z,6.57
2022-08-30T15:03:21.897Z,4.77
2022-08-30T15:05:52.979Z,6.31
2022-08-30T15:08:20.420Z,6.31
2022-08-30T15:10:48.938Z,5.95
2022-08-30T15:13:18.420Z,5.61
2022-08-30T15:15:45.598Z,5.62
2022-08-30T15:18:12.876Z,5.19
2022-08-30T15:20:46.077Z,6.80
2022-08-30T15:23:13.337Z,5.11
2022-08-30T15:25:44.077Z,5.65
2022-08-30T15:28:12.714Z,5.15
2022-08-30T15:30:40.956Z,5.22
2022-08-30T15:33:10.397Z,5.91
2022-08-30T15:35:37.457Z,5.23
2022-08-30T15:38:04.718Z,6.00
2022-08-30T15:40:32.521Z,6.02
2022-08-30T15:42:59.796Z,5.61
2022-08-30T15:45:29.359Z,5.80
2022-08-30T15:47:59.945Z,5.85
2022-08-30T15:50:28.143Z,5.89
2022-08-30T15:52:55.558Z,5.87
2022-08-30T15:55:22.917Z,5.95
2022-08-30T15:57:50.357Z,5.64
2022-08-30T16:00:18.016Z,5.85
2022-08-30T16:02:46.638Z,5.91
2022-08-30T16:05:14.617Z,6.37
2022-08-30T16:07:41.729Z,6.50
2022-08-30T16:10:09.938Z,6.65
2022-08-30T16:12:37.056Z,7.02
2022-08-30T16:15:05.017Z,6.93
2022-08-30T16:17:32.217Z,6.55
2022-08-30T16:20:00.819Z,6.96
2022-08-30T16:22:28.161Z,6.98
2022-08-30T16:24:55.277Z,6.79
2022-08-30T16:27:22.518Z,6.12
2022-08-30T16:29:50.073Z,6.69
2022-08-30T16:32:18.016Z,6.62
2022-08-30T16:34:45.695Z,6.23
2022-08-30T16:37:14.414Z,6.07
2022-08-30T16:39:46.502Z,5.79
2022-08-30T16:42:14.838Z,5.68
2022-08-30T16:44:49.570Z,5.19
2022-08-30T16:47:18.028Z,5.22
2022-08-30T16:49:45.516Z,5.11
2022-08-30T16:52:14.077Z,5.03
2022-08-30T16:54:41.214Z,4.54
2022-08-30T16:57:08.457Z,5.52
2022-08-30T16:59:37.636Z,6.61
2022-08-30T17:02:04.908Z,7.10
2022-08-30T17:04:32.077Z,6.60
2022-08-30T17:06:59.117Z,5.36
2022-08-30T17:09:27.717Z,4.11
2022-08-30T17:11:54.878Z,3.01
2022-08-30T17:14:27.476Z,3.00
2022-08-30T17:16:55.455Z,2.61
2022-08-30T17:19:26.924Z,2.53
2022-08-30T17:21:56.715Z,2.73
2022-08-30T17:24:27.562Z,2.72
2022-08-30T17:26:58.411Z,2.80
2022-08-30T17:29:26.382Z,2.58
2022-08-30T17:31:55.682Z,2.64
2022-08-30T17:34:26.647Z,2.77
2022-08-30T17:36:54.335Z,2.40
2022-08-30T17:39:22.207Z,2.85
2022-08-30T17:41:52.754Z,3.14
2022-08-30T17:44:22.622Z,3.17
2022-08-30T17:46:55.223Z,3.48
2022-08-30T17:49:23.255Z,3.51
2022-08-30T17:51:55.646Z,3.41
2022-08-30T17:54:25.733Z,3.50
2022-08-30T17:56:55.938Z,3.44
2022-08-30T17:59:24.946Z,3.02
2022-08-30T18:01:57.441Z,2.57
2022-08-30T18:04:27.586Z,2.74
2022-08-30T18:06:55.488Z,2.68
2022-08-30T18:09:25.226Z,2.64
2022-08-30T18:12:05.045Z,2.58
2022-08-30T18:14:35.744Z,2.56
2022-08-30T18:17:07.768Z,2.66
2022-08-30T18:19:35.285Z,2.82
2022-08-30T18:22:03.222Z,2.59
2022-08-30T18:24:31.461Z,2.68
2022-08-30T18:27:01.226Z,2.54
2022-08-30T18:29:31.378Z,2.48
2022-08-30T18:31:59.505Z,2.54
2022-08-30T18:34:26.665Z,2.07
2022-08-30T18:36:53.887Z,1.84
2022-08-30T18:39:21.328Z,1.83
2022-08-30T18:41:48.686Z,1.85
2022-08-30T18:44:27.949Z,1.69
2022-08-30T18:46:57.798Z,1.82
2022-08-30T18:49:25.109Z,1.90
2022-08-30T18:51:52.589Z,1.82
2022-08-30T18:54:20.564Z,2.01
2022-08-30T18:56:47.966Z,2.41
2022-08-30T18:59:17.565Z,2.28
2022-08-30T19:01:45.504Z,2.48
2022-08-30T19:04:22.293Z,2.35
2022-08-30T19:06:57.407Z,2.51
2022-08-30T19:09:24.647Z,2.23
2022-08-30T19:11:54.688Z,2.11
2022-08-30T19:14:23.207Z,2.13
2022-08-30T19:16:50.767Z,2.17
2022-08-30T19:19:17.926Z,2.54
2022-08-30T19:21:45.005Z,2.45
2022-08-30T19:24:12.505Z,2.61
2022-08-30T19:26:43.279Z,2.61
2022-08-30T19:29:14.350Z,2.84
2022-08-30T19:31:43.349Z,2.49
2022-08-30T19:34:11.950Z,2.73
2022-08-30T19:36:39.127Z,3.02
2022-08-30T19:39:10.166Z,3.07
2022-08-30T19:41:38.590Z,2.84
2022-08-30T19:44:09.051Z,3.25
2022-08-30T19:46:38.287Z,3.14
2022-08-30T19:49:06.908Z,3.17
2022-08-30T19:51:34.186Z,3.21
2022-08-30T19:54:05.047Z,3.29
2022-08-30T19:56:35.747Z,3.19
2022-08-30T19:59:03.607Z,3.26
2022-08-30T20:01:33.664Z,3.33
2022-08-30T20:04:02.455Z,3.64
2022-08-30T20:06:33.387Z,3.71
2022-08-30T20:09:03.469Z,3.39
2022-08-30T20:11:31.064Z,3.50
2022-08-30T20:13:58.460Z,3.80
2022-08-30T20:16:35.463Z,4.30
2022-08-30T20:19:10.067Z,4.52
2022-08-30T20:21:39.307Z,4.16
2022-08-30T20:24:10.066Z,4.18
2022-08-30T20:26:40.838Z,4.07
2022-08-30T20:29:08.907Z,3.91
2022-08-30T20:31:36.918Z,4.23
2022-08-30T20:34:05.458Z,3.90
2022-08-30T20:36:32.827Z,3.78
2022-08-30T20:39:02.330Z,3.99
2022-08-30T20:41:29.568Z,3.94
2022-08-30T20:43:56.648Z,3.89
2022-08-30T20:46:24.371Z,3.91
2022-08-30T20:48:51.689Z,3.67
2022-08-30T20:51:21.528Z,3.46
2022-08-30T20:53:49.727Z,3.49
2022-08-30T20:56:21.532Z,3.08
2022-08-30T20:58:51.229Z,3.46
2022-08-30T21:01:19.322Z,3.58
2022-08-30T21:03:46.568Z,3.53
2022-08-30T21:06:14.552Z,3.80
2022-08-30T21:08:41.609Z,3.73
2022-08-30T21:11:09.607Z,3.42
2022-08-30T21:13:38.648Z,3.29
2022-08-30T21:16:07.362Z,3.59
2022-08-30T21:18:36.647Z,3.41
2022-08-30T21:21:08.928Z,3.64
2022-08-30T21:23:36.788Z,3.64
2022-08-30T21:26:05.151Z,3.82
2022-08-30T21:28:32.488Z,3.78
2022-08-30T21:31:11.118Z,3.81
2022-08-30T21:33:39.369Z,3.92
2022-08-30T21:36:08.107Z,3.66
2022-08-30T21:38:35.226Z,3.46
2022-08-30T21:41:02.409Z,3.62
2022-08-30T21:43:29.528Z,3.66
2022-08-30T21:45:56.719Z,3.32
2022-08-30T21:48:25.407Z,3.45
2022-08-30T21:50:52.566Z,3.51
2022-08-30T21:53:19.855Z,3.24
2022-08-30T21:55:48.008Z,4.01
2022-08-30T21:58:15.406Z,3.91
2022-08-30T22:00:42.546Z,3.78
2022-08-30T22:03:09.719Z,3.86
2022-08-30T22:05:38.527Z,3.57
2022-08-30T22:08:05.629Z,3.66
2022-08-30T22:10:33.442Z,3.90
2022-08-30T22:13:00.768Z,3.82
2022-08-30T22:15:27.867Z,3.70
2022-08-30T22:17:54.968Z,3.37
2022-08-30T22:20:22.099Z,3.46
2022-08-30T22:22:52.568Z,3.60
2022-08-30T22:25:19.707Z,3.50
2022-08-30T22:27:46.917Z,3.27
2022-08-30T22:30:14.390Z,3.56
2022-08-30T22:32:41.768Z,3.57
2022-08-30T22:35:09.467Z,3.59
2022-08-30T22:37:36.546Z,3.66
2022-08-30T22:40:06.299Z,3.86
2022-08-30T22:42:33.478Z,3.78
2022-08-30T22:45:00.678Z,3.45
2022-08-30T22:47:27.847Z,3.37
2022-08-30T22:49:55.127Z,3.71
2022-08-30T22:52:25.481Z,3.22
2022-08-30T22:54:52.887Z,3.50
2022-08-30T22:57:23.848Z,3.30
2022-08-30T22:59:51.027Z,3.36
2022-08-30T23:02:18.430Z,3.16
2022-08-30T23:04:45.588Z,3.28
2022-08-30T23:07:12.729Z,3.46
2022-08-30T23:09:39.861Z,3.43
2022-08-30T23:12:07.288Z,3.62
2022-08-30T23:14:35.809Z,3.31
2022-08-30T23:17:02.888Z,3.13
2022-08-30T23:19:29.968Z,3.51
2022-08-30T23:21:57.048Z,3.39
2022-08-30T23:24:24.147Z,3.60
2022-08-30T23:26:51.307Z,3.66
2022-08-30T23:29:18.428Z,3.28
2022-08-30T23:31:47.051Z,3.35
2022-08-30T23:34:14.289Z,3.07
2022-08-30T23:36:41.648Z,3.41
2022-08-30T23:39:08.827Z,3.67
2022-08-30T23:41:35.930Z,3.57
2022-08-30T23:44:03.627Z,3.44
2022-08-30T23:46:30.767Z,3.55
2022-08-30T23:48:59.307Z,3.40
2022-08-30T23:51:26.447Z,3.46
2022-08-30T23:53:53.527Z,3.37
2022-08-30T23:56:20.689Z,3.53
2022-08-30T23:58:47.807Z,3.47
